createdAt,value
2019-02-03T00:00:19.287Z,17.23
2019-02-03T00:00:59.920Z,17.18
2019-02-03T00:01:40.532Z,17.19
2019-02-03T00:02:21.168Z,17.18
2019-02-03T00:03:01.777Z,17.18
2019-02-03T00:03:42.394Z,17.21
2019-02-03T00:04:23.038Z,17.21
2019-02-03T00:05:03.701Z,17.18
2019-02-03T00:05:44.342Z,17.16
2019-02-03T00:06:24.950Z,17.21
2019-02-03T00:07:05.556Z,17.23
2019-02-03T00:07:46.167Z,17.18
2019-02-03T00:08:26.778Z,17.19
2019-02-03T00:09:07.494Z,17.21
2019-02-03T00:09:48.186Z,17.21
2019-02-03T00:10:28.780Z,17.18
2019-02-03T00:11:09.389Z,17.18
2019-02-03T00:11:50.009Z,17.21
2019-02-03T00:12:30.625Z,17.19
2019-02-03T00:13:11.240Z,17.21
2019-02-03T00:13:51.868Z,17.21
2019-02-03T00:14:32.485Z,17.22
2019-02-03T00:15:13.110Z,17.21
2019-02-03T00:15:53.724Z,17.15
2019-02-03T00:16:34.334Z,17.21
2019-02-03T00:17:14.937Z,17.23
2019-02-03T00:17:55.558Z,17.18
2019-02-03T00:18:36.211Z,17.16
2019-02-03T00:19:16.826Z,17.23
2019-02-03T00:19:57.447Z,17.25
2019-02-03T00:20:38.052Z,17.21
2019-02-03T00:21:18.657Z,17.22
2019-02-03T00:21:59.278Z,17.18
2019-02-03T00:22:39.880Z,17.21
2019-02-03T00:23:20.489Z,17.21
2019-02-03T00:24:01.132Z,17.21
2019-02-03T00:24:41.733Z,17.23
2019-02-03T00:25:22.409Z,17.19
2019-02-03T00:26:03.049Z,17.23
2019-02-03T00:26:43.668Z,17.21
2019-02-03T00:27:24.365Z,17.21
2019-02-03T00:28:04.988Z,17.18
2019-02-03T00:28:45.587Z,17.21
2019-02-03T00:29:26.198Z,17.18
2019-02-03T00:30:06.800Z,17.19
2019-02-03T00:30:47.410Z,17.15
2019-02-03T00:31:28.020Z,17.16
2019-02-03T00:32:08.617Z,17.21
2019-02-03T00:32:51.501Z,17.22
2019-02-03T00:33:29.853Z,17.14
2019-02-03T00:34:10.466Z,17.16
2019-02-03T00:34:51.120Z,17.22
2019-02-03T00:35:31.729Z,17.21
2019-02-03T00:36:12.318Z,17.21
2019-02-03T00:36:52.936Z,17.18
2019-02-03T00:37:33.584Z,17.14
2019-02-03T00:38:21.414Z,17.15
2019-02-03T00:38:54.892Z,17.15
2019-02-03T00:39:35.396Z,17.14
2019-02-03T00:40:15.974Z,17.18
2019-02-03T00:40:56.610Z,17.15
2019-02-03T00:41:37.214Z,17.19
2019-02-03T00:42:17.822Z,17.19
2019-02-03T00:42:58.424Z,17.21
2019-02-03T00:43:39.036Z,17.21
2019-02-03T00:44:19.658Z,17.19
2019-02-03T00:45:00.264Z,17.21
2019-02-03T00:45:40.863Z,17.21
2019-02-03T00:46:21.508Z,17.15
2019-02-03T00:47:02.125Z,17.21
2019-02-03T00:47:42.731Z,17.19
2019-02-03T00:48:23.340Z,17.18
2019-02-03T00:49:03.954Z,17.08
2019-02-03T00:49:44.555Z,17.15
2019-02-03T00:50:25.174Z,17.21
2019-02-03T00:51:05.770Z,17.12
2019-02-03T00:51:46.378Z,17.18
2019-02-03T00:52:26.980Z,17.18
2019-02-03T00:53:07.592Z,17.18
2019-02-03T00:53:48.210Z,17.21
2019-02-03T00:54:28.832Z,17.22
2019-02-03T00:55:09.439Z,17.16
2019-02-03T00:55:50.074Z,17.14
2019-02-03T00:56:30.684Z,17.18
2019-02-03T00:57:11.304Z,17.18
2019-02-03T00:57:51.912Z,17.21
2019-02-03T00:58:32.514Z,17.08
2019-02-03T00:59:13.114Z,17.16
2019-02-03T00:59:53.726Z,17.12
2019-02-03T01:00:34.336Z,17.14
2019-02-03T01:01:14.973Z,17.14
2019-02-03T01:01:55.570Z,17.12
2019-02-03T01:02:36.184Z,17.21
2019-02-03T01:03:16.780Z,17.14
2019-02-03T01:03:57.396Z,17.16
2019-02-03T01:04:38.008Z,17.14
2019-02-03T01:05:18.612Z,17.16
2019-02-03T01:05:59.234Z,17.18
2019-02-03T01:06:39.842Z,17.15
2019-02-03T01:07:27.338Z,17.14
2019-02-03T01:08:01.078Z,17.14
2019-02-03T01:08:41.724Z,17.14
2019-02-03T01:09:22.335Z,17.22
2019-02-03T01:10:02.956Z,17.14
2019-02-03T01:10:43.562Z,17.12
2019-02-03T01:11:24.172Z,17.07
2019-02-03T01:12:04.796Z,17.18
2019-02-03T01:12:45.404Z,17.12
2019-02-03T01:13:26.017Z,17.14
2019-02-03T01:14:06.622Z,17.21
2019-02-03T01:14:47.278Z,17.12
2019-02-03T01:15:27.930Z,17.08
2019-02-03T01:16:08.538Z,17.07
2019-02-03T01:16:49.153Z,17.07
2019-02-03T01:17:29.782Z,17.12
2019-02-03T01:18:10.396Z,17.11
2019-02-03T01:18:51.004Z,17.06
2019-02-03T01:19:31.630Z,17.08
2019-02-03T01:20:12.339Z,17.07
2019-02-03T01:20:52.862Z,17.12
2019-02-03T01:21:33.478Z,17.11
2019-02-03T01:22:14.082Z,17.07
2019-02-03T01:22:54.688Z,17.11
2019-02-03T01:23:35.314Z,17.07
2019-02-03T01:24:16.066Z,17.07
2019-02-03T01:24:56.538Z,17.16
2019-02-03T01:25:37.186Z,17.11
2019-02-03T01:26:17.774Z,17.07
2019-02-03T01:26:58.402Z,17.07
2019-02-03T01:27:39.006Z,17.12
2019-02-03T01:28:19.602Z,17.14
2019-02-03T01:29:00.197Z,17.08
2019-02-03T01:29:40.850Z,17.08
2019-02-03T01:30:21.462Z,17.11
2019-02-03T01:31:02.102Z,17.07
2019-02-03T01:31:42.717Z,17.12
2019-02-03T01:32:23.332Z,17.11
2019-02-03T01:33:03.940Z,17.08
2019-02-03T01:33:44.576Z,17.15
2019-02-03T01:34:25.183Z,17.12
2019-02-03T01:35:05.784Z,17.14
2019-02-03T01:35:46.390Z,17.07
2019-02-03T01:36:26.994Z,17.07
2019-02-03T01:37:07.632Z,17.04
2019-02-03T01:37:48.238Z,17.14
2019-02-03T01:38:28.844Z,17.14
2019-02-03T01:39:09.444Z,17.07
2019-02-03T01:39:50.092Z,17.11
2019-02-03T01:40:30.698Z,17.11
2019-02-03T01:41:11.298Z,17.12
2019-02-03T01:41:51.910Z,17.12
2019-02-03T01:42:32.526Z,17.08
2019-02-03T01:43:13.157Z,17.08
2019-02-03T01:43:53.762Z,17.04
2019-02-03T01:44:34.362Z,17.07
2019-02-03T01:45:14.993Z,17.07
2019-02-03T01:45:55.638Z,17.07
2019-02-03T01:46:36.192Z,17.07
2019-02-03T01:47:16.812Z,17.04
2019-02-03T01:47:57.452Z,17.08
2019-02-03T01:48:38.072Z,17.06
2019-02-03T01:49:18.760Z,17.07
2019-02-03T01:49:59.292Z,17.07
2019-02-03T01:50:39.906Z,17.04
2019-02-03T01:51:20.521Z,17.04
2019-02-03T01:52:01.132Z,17.04
2019-02-03T01:52:41.748Z,17.03
2019-02-03T01:53:22.388Z,17.01
2019-02-03T01:54:03.027Z,17.08
2019-02-03T01:54:43.642Z,17.06
2019-02-03T01:55:24.260Z,17.03
2019-02-03T01:56:04.884Z,17.08
2019-02-03T01:56:45.488Z,17.03
2019-02-03T01:57:26.104Z,17.12
2019-02-03T01:58:06.714Z,17.01
2019-02-03T01:58:47.318Z,17
2019-02-03T01:59:27.946Z,17.11
2019-02-03T02:00:08.557Z,17.06
2019-02-03T02:00:49.206Z,17.07
2019-02-03T02:01:29.818Z,17.07
2019-02-03T02:02:10.414Z,17.06
2019-02-03T02:02:51.044Z,17.07
2019-02-03T02:03:31.618Z,17.03
2019-02-03T02:04:12.228Z,17.14
2019-02-03T02:04:52.834Z,17.04
2019-02-03T02:05:33.462Z,17.08
2019-02-03T02:06:14.100Z,17.03
2019-02-03T02:06:54.696Z,17.08
2019-02-03T02:07:35.324Z,17.12
2019-02-03T02:08:15.945Z,17.08
2019-02-03T02:08:56.560Z,17.06
2019-02-03T02:09:37.168Z,17.04
2019-02-03T02:10:17.768Z,17.11
2019-02-03T02:10:58.376Z,17.14
2019-02-03T02:11:38.983Z,17.08
2019-02-03T02:12:19.593Z,17.04
2019-02-03T02:13:00.206Z,17.08
2019-02-03T02:13:40.795Z,17.12
2019-02-03T02:14:21.392Z,17.14
2019-02-03T02:15:02.004Z,17.08
2019-02-03T02:15:42.612Z,17.12
2019-02-03T02:16:23.218Z,17.01
2019-02-03T02:17:03.834Z,17.08
2019-02-03T02:17:44.448Z,17.08
2019-02-03T02:18:25.061Z,17.07
2019-02-03T02:19:05.659Z,17.11
2019-02-03T02:19:46.270Z,17.12
2019-02-03T02:20:26.872Z,17.07
2019-02-03T02:21:07.470Z,17.07
2019-02-03T02:21:48.121Z,17.08
2019-02-03T02:22:28.727Z,17.03
2019-02-03T02:23:09.336Z,17.08
2019-02-03T02:23:49.934Z,17.07
2019-02-03T02:24:30.580Z,17.01
2019-02-03T02:25:11.188Z,17.01
2019-02-03T02:25:51.816Z,17.08
2019-02-03T02:26:32.422Z,17.07
2019-02-03T02:27:13.026Z,17.07
2019-02-03T02:27:53.654Z,17.12
2019-02-03T02:28:34.287Z,17.07
2019-02-03T02:29:14.878Z,17.06
2019-02-03T02:29:55.486Z,17.11
2019-02-03T02:30:36.100Z,17.07
2019-02-03T02:31:16.702Z,17.08
2019-02-03T02:31:57.330Z,17.08
2019-02-03T02:32:37.966Z,16.98
2019-02-03T02:33:18.583Z,17.07
2019-02-03T02:33:59.178Z,17.14
2019-02-03T02:34:39.774Z,17.07
2019-02-03T02:35:20.378Z,17.08
2019-02-03T02:36:00.974Z,17.08
2019-02-03T02:36:41.579Z,17.07
2019-02-03T02:37:22.192Z,17.07
2019-02-03T02:38:07.200Z,17.06
2019-02-03T02:38:43.433Z,17.03
2019-02-03T02:39:24.038Z,17.06
2019-02-03T02:40:12.016Z,17.08
2019-02-03T02:40:45.283Z,17.03
2019-02-03T02:41:25.881Z,17.04
2019-02-03T02:42:06.468Z,17.03
2019-02-03T02:42:47.088Z,16.98
2019-02-03T02:43:27.708Z,16.98
2019-02-03T02:44:08.318Z,17.08
2019-02-03T02:44:48.940Z,17.01
2019-02-03T02:45:29.532Z,17.06
2019-02-03T02:46:10.122Z,17.01
2019-02-03T02:46:50.854Z,17.07
2019-02-03T02:47:31.343Z,16.98
2019-02-03T02:48:11.964Z,16.98
2019-02-03T02:48:52.576Z,17.11
2019-02-03T02:49:33.198Z,17
2019-02-03T02:50:13.806Z,16.98
2019-02-03T02:50:54.410Z,16.94
2019-02-03T02:51:35.025Z,17
2019-02-03T02:52:15.638Z,16.98
2019-02-03T02:52:56.245Z,16.98
2019-02-03T02:53:36.863Z,17
2019-02-03T02:54:17.462Z,17.03
2019-02-03T02:54:58.084Z,17.01
2019-02-03T02:55:38.712Z,17.01
2019-02-03T02:56:19.325Z,16.98
2019-02-03T02:56:59.918Z,17.03
2019-02-03T02:57:40.580Z,17.01
2019-02-03T02:58:21.208Z,16.93
2019-02-03T02:59:01.823Z,16.97
2019-02-03T02:59:42.436Z,16.97
2019-02-03T03:00:23.040Z,16.97
2019-02-03T03:01:03.649Z,17.03
2019-02-03T03:01:44.252Z,16.89
2019-02-03T03:02:24.850Z,16.97
2019-02-03T03:03:05.454Z,16.98
2019-02-03T03:03:46.065Z,16.97
2019-02-03T03:04:26.690Z,16.98
2019-02-03T03:05:07.304Z,16.96
2019-02-03T03:05:47.909Z,17.04
2019-02-03T03:06:28.518Z,17.01
2019-02-03T03:07:09.108Z,17.01
2019-02-03T03:07:49.722Z,16.97
2019-02-03T03:08:30.308Z,16.96
2019-02-03T03:09:10.910Z,16.93
2019-02-03T03:09:51.518Z,16.96
2019-02-03T03:10:32.143Z,16.96
2019-02-03T03:11:12.760Z,16.93
2019-02-03T03:11:53.368Z,16.98
2019-02-03T03:12:33.988Z,16.94
2019-02-03T03:13:14.592Z,16.93
2019-02-03T03:13:55.234Z,16.94
2019-02-03T03:14:35.849Z,16.96
2019-02-03T03:15:16.464Z,17
2019-02-03T03:15:57.096Z,17
2019-02-03T03:16:37.712Z,16.96
2019-02-03T03:17:18.329Z,16.94
2019-02-03T03:17:58.936Z,17.04
2019-02-03T03:18:39.631Z,16.96
2019-02-03T03:19:20.306Z,16.97
2019-02-03T03:20:01.033Z,16.94
2019-02-03T03:20:41.656Z,16.98
2019-02-03T03:21:22.274Z,16.97
2019-02-03T03:22:02.883Z,16.94
2019-02-03T03:22:43.496Z,17
2019-02-03T03:23:24.120Z,16.98
2019-02-03T03:24:04.728Z,16.94
2019-02-03T03:24:45.326Z,16.89
2019-02-03T03:25:25.934Z,16.97
2019-02-03T03:26:06.522Z,16.93
2019-02-03T03:26:47.139Z,16.88
2019-02-03T03:27:27.768Z,16.89
2019-02-03T03:28:08.383Z,16.96
2019-02-03T03:28:49.008Z,16.96
2019-02-03T03:29:29.600Z,16.93
2019-02-03T03:30:10.210Z,17
2019-02-03T03:30:50.810Z,16.96
2019-02-03T03:31:31.459Z,16.94
2019-02-03T03:32:12.133Z,16.88
2019-02-03T03:32:52.797Z,16.96
2019-02-03T03:33:33.413Z,16.96
2019-02-03T03:34:14.017Z,17
2019-02-03T03:34:54.623Z,16.97
2019-02-03T03:35:35.226Z,16.98
2019-02-03T03:36:15.832Z,16.96
2019-02-03T03:36:56.475Z,16.88
2019-02-03T03:37:37.076Z,17
2019-02-03T03:38:17.764Z,16.96
2019-02-03T03:38:58.374Z,16.93
2019-02-03T03:39:39.040Z,16.88
2019-02-03T03:40:19.643Z,16.89
2019-02-03T03:41:00.246Z,16.89
2019-02-03T03:41:40.852Z,16.93
2019-02-03T03:42:21.471Z,16.93
2019-02-03T03:43:02.148Z,16.93
2019-02-03T03:43:42.762Z,17.01
2019-02-03T03:44:23.365Z,16.97
2019-02-03T03:45:03.961Z,16.89
2019-02-03T03:45:44.570Z,16.98
2019-02-03T03:46:25.169Z,16.93
2019-02-03T03:47:05.809Z,17
2019-02-03T03:47:46.417Z,16.98
2019-02-03T03:48:27.002Z,16.96
2019-02-03T03:49:07.646Z,16.94
2019-02-03T03:49:48.259Z,16.98
2019-02-03T03:50:28.869Z,16.94
2019-02-03T03:51:09.473Z,16.94
2019-02-03T03:51:50.123Z,17
2019-02-03T03:52:30.814Z,16.91
2019-02-03T03:53:11.469Z,16.94
2019-02-03T03:53:52.086Z,16.97
2019-02-03T03:54:32.726Z,16.98
2019-02-03T03:55:13.335Z,16.98
2019-02-03T03:55:53.941Z,16.96
2019-02-03T03:56:34.536Z,16.93
2019-02-03T03:57:15.159Z,16.91
2019-02-03T03:57:55.739Z,16.89
2019-02-03T03:58:36.344Z,16.86
2019-02-03T03:59:16.965Z,16.91
2019-02-03T03:59:57.590Z,16.91
2019-02-03T04:00:38.214Z,16.94
2019-02-03T04:01:18.837Z,16.91
2019-02-03T04:01:59.440Z,16.93
2019-02-03T04:02:40.044Z,16.88
2019-02-03T04:03:20.651Z,16.98
2019-02-03T04:04:01.267Z,16.96
2019-02-03T04:04:41.870Z,16.94
2019-02-03T04:05:22.515Z,16.91
2019-02-03T04:06:03.142Z,16.89
2019-02-03T04:06:43.754Z,16.88
2019-02-03T04:07:24.384Z,16.91
2019-02-03T04:08:04.983Z,16.98
2019-02-03T04:08:45.866Z,16.86
2019-02-03T04:09:26.219Z,16.96
2019-02-03T04:10:06.819Z,16.88
2019-02-03T04:10:47.430Z,16.88
2019-02-03T04:11:28.024Z,16.96
2019-02-03T04:12:08.627Z,16.86
2019-02-03T04:12:49.219Z,16.86
2019-02-03T04:13:29.840Z,16.91
2019-02-03T04:14:10.444Z,16.93
2019-02-03T04:14:51.075Z,16.96
2019-02-03T04:15:31.691Z,16.88
2019-02-03T04:16:12.291Z,16.88
2019-02-03T04:16:52.885Z,16.88
2019-02-03T04:17:33.509Z,16.86
2019-02-03T04:18:14.105Z,16.93
2019-02-03T04:18:54.717Z,16.88
2019-02-03T04:19:35.327Z,16.93
2019-02-03T04:20:15.947Z,16.97
2019-02-03T04:20:56.555Z,16.88
2019-02-03T04:21:37.185Z,16.89
2019-02-03T04:22:17.807Z,16.89
2019-02-03T04:22:58.655Z,16.86
2019-02-03T04:23:39.055Z,16.89
2019-02-03T04:24:19.676Z,16.91
2019-02-03T04:25:00.539Z,16.91
2019-02-03T04:25:40.931Z,16.89
2019-02-03T04:26:21.541Z,16.91
2019-02-03T04:27:02.157Z,16.91
2019-02-03T04:27:42.767Z,16.88
2019-02-03T04:28:23.385Z,16.86
2019-02-03T04:29:03.991Z,16.89
2019-02-03T04:29:44.735Z,16.83
2019-02-03T04:30:25.257Z,16.88
2019-02-03T04:31:05.877Z,16.91
2019-02-03T04:31:46.496Z,16.93
2019-02-03T04:32:27.115Z,16.85
2019-02-03T04:33:07.728Z,16.93
2019-02-03T04:33:48.333Z,16.83
2019-02-03T04:34:29.892Z,16.88
2019-02-03T04:35:09.557Z,16.89
2019-02-03T04:35:50.173Z,16.86
2019-02-03T04:36:30.809Z,16.89
2019-02-03T04:37:11.427Z,16.91
2019-02-03T04:37:52.051Z,16.85
2019-02-03T04:38:32.646Z,16.88
2019-02-03T04:39:13.279Z,16.89
2019-02-03T04:39:53.883Z,16.93
2019-02-03T04:40:34.481Z,16.91
2019-02-03T04:41:15.105Z,16.89
2019-02-03T04:41:55.723Z,16.86
2019-02-03T04:42:36.350Z,16.89
2019-02-03T04:43:16.947Z,16.88
2019-02-03T04:43:57.561Z,16.89
2019-02-03T04:44:38.215Z,16.88
2019-02-03T04:45:21.828Z,16.89
2019-02-03T04:45:59.438Z,16.93
2019-02-03T04:46:40.043Z,16.86
2019-02-03T04:47:20.655Z,16.91
2019-02-03T04:48:01.275Z,16.91
2019-02-03T04:48:41.888Z,16.86
2019-02-03T04:49:22.516Z,16.89
2019-02-03T04:50:03.152Z,16.88
2019-02-03T04:50:43.788Z,16.86
2019-02-03T04:51:24.395Z,16.86
2019-02-03T04:52:05.026Z,16.83
2019-02-03T04:52:45.619Z,16.91
2019-02-03T04:53:26.228Z,16.86
2019-02-03T04:54:06.835Z,16.86
2019-02-03T04:54:47.460Z,16.88
2019-02-03T04:55:28.115Z,16.91
2019-02-03T04:56:08.721Z,16.86
2019-02-03T04:56:49.332Z,16.86
2019-02-03T04:57:29.945Z,16.89
2019-02-03T04:58:10.555Z,16.91
2019-02-03T04:58:51.163Z,16.89
2019-02-03T04:59:31.786Z,16.93
2019-02-03T05:00:12.399Z,16.86
2019-02-03T05:00:53.007Z,16.89
2019-02-03T05:01:33.607Z,16.83
2019-02-03T05:02:14.209Z,16.89
2019-02-03T05:02:54.807Z,16.88
2019-02-03T05:03:35.465Z,16.88
2019-02-03T05:04:16.037Z,16.82
2019-02-03T05:04:56.701Z,16.83
2019-02-03T05:05:37.275Z,16.89
2019-02-03T05:06:17.879Z,16.96
2019-02-03T05:06:58.529Z,16.94
2019-02-03T05:07:39.097Z,16.86
2019-02-03T05:08:19.755Z,16.89
2019-02-03T05:09:10.592Z,16.89
2019-02-03T05:09:40.967Z,16.86
2019-02-03T05:10:21.571Z,16.88
2019-02-03T05:11:02.175Z,16.85
2019-02-03T05:11:42.779Z,16.89
2019-02-03T05:12:23.373Z,16.88
2019-02-03T05:13:03.995Z,16.88
2019-02-03T05:13:44.607Z,16.85
2019-02-03T05:14:25.222Z,16.86
2019-02-03T05:15:05.850Z,16.89
2019-02-03T05:15:46.477Z,16.86
2019-02-03T05:16:27.101Z,16.89
2019-02-03T05:17:07.721Z,16.83
2019-02-03T05:17:48.332Z,16.89
2019-02-03T05:18:28.939Z,16.88
2019-02-03T05:19:09.545Z,16.89
2019-02-03T05:19:50.157Z,16.89
2019-02-03T05:20:30.759Z,16.83
2019-02-03T05:21:11.367Z,16.91
2019-02-03T05:21:52.059Z,16.88
2019-02-03T05:22:32.657Z,16.88
2019-02-03T05:23:13.257Z,16.88
2019-02-03T05:23:53.883Z,16.89
2019-02-03T05:24:34.485Z,16.85
2019-02-03T05:25:15.103Z,16.86
2019-02-03T05:25:55.707Z,16.83
2019-02-03T05:26:36.325Z,16.88
2019-02-03T05:27:17.003Z,16.88
2019-02-03T05:27:57.606Z,16.83
2019-02-03T05:28:38.233Z,16.93
2019-02-03T05:29:18.830Z,16.97
2019-02-03T05:29:59.440Z,16.96
2019-02-03T05:30:40.058Z,16.86
2019-02-03T05:31:22.418Z,16.89
2019-02-03T05:32:01.287Z,16.86
2019-02-03T05:32:41.901Z,16.85
2019-02-03T05:33:22.519Z,16.89
2019-02-03T05:34:03.138Z,16.91
2019-02-03T05:34:43.740Z,16.86
2019-02-03T05:35:24.334Z,16.86
2019-02-03T05:36:04.953Z,16.86
2019-02-03T05:36:45.553Z,16.86
2019-02-03T05:37:26.159Z,16.82
2019-02-03T05:38:06.763Z,16.93
2019-02-03T05:38:47.367Z,16.89
2019-02-03T05:39:27.969Z,16.91
2019-02-03T05:40:08.567Z,16.86
2019-02-03T05:40:49.167Z,16.91
2019-02-03T05:41:29.799Z,16.88
2019-02-03T05:42:10.395Z,16.96
2019-02-03T05:42:51.007Z,16.86
2019-02-03T05:43:31.617Z,16.96
2019-02-03T05:44:12.225Z,16.94
2019-02-03T05:44:52.840Z,16.93
2019-02-03T05:45:33.431Z,16.86
2019-02-03T05:46:14.051Z,16.88
2019-02-03T05:46:54.671Z,16.86
2019-02-03T05:47:35.283Z,16.86
2019-02-03T05:48:15.896Z,16.89
2019-02-03T05:48:56.481Z,16.86
2019-02-03T05:49:37.114Z,16.86
2019-02-03T05:50:17.743Z,16.83
2019-02-03T05:50:58.362Z,16.91
2019-02-03T05:51:38.980Z,16.79
2019-02-03T05:52:19.609Z,16.89
2019-02-03T05:53:00.201Z,16.89
2019-02-03T05:53:40.813Z,16.81
2019-02-03T05:54:21.408Z,16.79
2019-02-03T05:55:02.066Z,16.81
2019-02-03T05:55:42.671Z,16.81
2019-02-03T05:56:23.273Z,16.82
2019-02-03T05:57:03.887Z,16.88
2019-02-03T05:57:44.490Z,16.86
2019-02-03T05:58:25.113Z,16.85
2019-02-03T05:59:05.727Z,16.88
2019-02-03T05:59:46.351Z,16.75
2019-02-03T06:00:26.955Z,16.93
2019-02-03T06:01:07.611Z,16.88
2019-02-03T06:01:48.233Z,16.75
2019-02-03T06:02:28.851Z,16.83
2019-02-03T06:03:09.459Z,16.79
2019-02-03T06:03:50.137Z,16.82
2019-02-03T06:04:30.743Z,16.88
2019-02-03T06:05:11.365Z,16.79
2019-02-03T06:05:51.983Z,16.82
2019-02-03T06:06:32.595Z,16.79
2019-02-03T06:07:13.197Z,16.86
2019-02-03T06:07:53.829Z,16.89
2019-02-03T06:08:34.437Z,16.75
2019-02-03T06:09:15.043Z,16.83
2019-02-03T06:09:55.656Z,16.79
2019-02-03T06:10:36.257Z,16.81
2019-02-03T06:11:16.873Z,16.85
2019-02-03T06:11:57.503Z,16.82
2019-02-03T06:12:38.160Z,16.78
2019-02-03T06:13:18.772Z,16.83
2019-02-03T06:13:59.385Z,16.85
2019-02-03T06:14:40.001Z,16.81
2019-02-03T06:15:20.648Z,16.79
2019-02-03T06:16:01.273Z,16.75
2019-02-03T06:16:41.893Z,16.81
2019-02-03T06:17:22.504Z,16.91
2019-02-03T06:18:03.118Z,16.79
2019-02-03T06:18:43.733Z,16.81
2019-02-03T06:19:24.347Z,16.83
2019-02-03T06:20:04.957Z,16.83
2019-02-03T06:20:45.580Z,16.83
2019-02-03T06:21:26.187Z,16.83
2019-02-03T06:22:06.791Z,16.85
2019-02-03T06:22:47.495Z,16.81
2019-02-03T06:23:28.009Z,16.81
2019-02-03T06:24:08.605Z,16.79
2019-02-03T06:24:51.662Z,16.78
2019-02-03T06:25:29.802Z,16.83
2019-02-03T06:26:10.435Z,16.82
2019-02-03T06:26:51.069Z,16.79
2019-02-03T06:27:31.691Z,16.81
2019-02-03T06:28:12.295Z,16.79
2019-02-03T06:28:52.951Z,16.78
2019-02-03T06:29:33.605Z,16.83
2019-02-03T06:30:14.219Z,16.78
2019-02-03T06:30:54.831Z,16.85
2019-02-03T06:31:35.442Z,16.83
2019-02-03T06:32:16.065Z,16.85
2019-02-03T06:32:56.659Z,16.85
2019-02-03T06:33:37.279Z,16.76
2019-02-03T06:34:17.882Z,16.75
2019-02-03T06:34:58.593Z,16.79
2019-02-03T06:35:39.202Z,16.83
2019-02-03T06:36:19.828Z,16.78
2019-02-03T06:37:00.490Z,16.75
2019-02-03T06:37:41.113Z,16.78
2019-02-03T06:38:21.853Z,16.79
2019-02-03T06:39:02.459Z,16.81
2019-02-03T06:39:48.353Z,16.82
2019-02-03T06:40:23.870Z,16.78
2019-02-03T06:41:04.504Z,16.78
2019-02-03T06:41:45.130Z,16.81
2019-02-03T06:42:25.762Z,16.83
2019-02-03T06:43:06.436Z,16.76
2019-02-03T06:43:47.153Z,16.78
2019-02-03T06:44:27.778Z,16.79
2019-02-03T06:45:08.426Z,16.75
2019-02-03T06:45:49.044Z,16.81
2019-02-03T06:46:29.689Z,16.75
2019-02-03T06:47:10.300Z,16.78
2019-02-03T06:47:50.919Z,16.81
2019-02-03T06:48:31.521Z,16.78
2019-02-03T06:49:12.149Z,16.82
2019-02-03T06:49:52.819Z,16.76
2019-02-03T06:50:33.455Z,16.78
2019-02-03T06:51:14.061Z,16.78
2019-02-03T06:51:54.694Z,16.75
2019-02-03T06:52:35.324Z,16.81
2019-02-03T06:53:15.989Z,16.78
2019-02-03T06:53:56.594Z,16.81
2019-02-03T06:54:37.290Z,16.75
2019-02-03T06:55:17.901Z,16.79
2019-02-03T06:55:58.512Z,16.79
2019-02-03T06:56:39.130Z,16.85
2019-02-03T06:57:19.754Z,16.85
2019-02-03T06:58:00.333Z,16.81
2019-02-03T06:58:40.969Z,16.79
2019-02-03T06:59:21.586Z,16.81
2019-02-03T07:00:02.199Z,16.75
2019-02-03T07:00:42.810Z,16.75
2019-02-03T07:01:23.408Z,16.83
2019-02-03T07:02:04.006Z,16.78
2019-02-03T07:02:44.621Z,16.78
2019-02-03T07:03:25.255Z,16.82
2019-02-03T07:04:05.857Z,16.81
2019-02-03T07:04:46.474Z,16.73
2019-02-03T07:05:27.088Z,16.75
2019-02-03T07:06:07.738Z,16.81
2019-02-03T07:06:48.339Z,16.76
2019-02-03T07:07:28.939Z,16.79
2019-02-03T07:08:09.537Z,16.79
2019-02-03T07:08:50.150Z,16.71
2019-02-03T07:09:30.774Z,16.79
2019-02-03T07:10:11.424Z,16.82
2019-02-03T07:10:52.071Z,16.78
2019-02-03T07:11:32.676Z,16.76
2019-02-03T07:12:13.267Z,16.76
2019-02-03T07:12:53.881Z,16.75
2019-02-03T07:13:34.481Z,16.81
2019-02-03T07:14:15.114Z,16.81
2019-02-03T07:14:55.729Z,16.73
2019-02-03T07:15:36.715Z,16.78
2019-02-03T07:16:17.089Z,16.82
2019-02-03T07:16:57.595Z,16.76
2019-02-03T07:17:38.214Z,16.83
2019-02-03T07:18:18.816Z,16.79
2019-02-03T07:18:59.411Z,16.78
2019-02-03T07:19:40.007Z,16.88
2019-02-03T07:20:20.619Z,16.76
2019-02-03T07:21:01.232Z,16.78
2019-02-03T07:21:41.838Z,16.78
2019-02-03T07:22:22.463Z,16.78
2019-02-03T07:23:03.087Z,16.85
2019-02-03T07:23:43.718Z,16.81
2019-02-03T07:24:24.337Z,16.81
2019-02-03T07:25:04.943Z,16.76
2019-02-03T07:25:45.543Z,16.82
2019-02-03T07:26:26.145Z,16.79
2019-02-03T07:27:06.764Z,16.79
2019-02-03T07:27:47.375Z,16.75
2019-02-03T07:28:27.990Z,16.82
2019-02-03T07:29:08.586Z,16.81
2019-02-03T07:29:49.183Z,16.78
2019-02-03T07:30:29.784Z,16.75
2019-02-03T07:31:10.402Z,16.78
2019-02-03T07:31:51.025Z,16.82
2019-02-03T07:32:31.643Z,16.75
2019-02-03T07:33:12.268Z,16.81
2019-02-03T07:33:52.921Z,16.75
2019-02-03T07:34:33.539Z,16.81
2019-02-03T07:35:14.209Z,16.79
2019-02-03T07:35:54.854Z,16.78
2019-02-03T07:36:35.514Z,16.82
2019-02-03T07:37:16.126Z,16.81
2019-02-03T07:37:56.725Z,16.81
2019-02-03T07:38:37.336Z,16.82
2019-02-03T07:39:17.945Z,16.76
2019-02-03T07:39:58.577Z,16.78
2019-02-03T07:40:39.200Z,16.81
2019-02-03T07:41:19.819Z,16.78
2019-02-03T07:42:00.424Z,16.82
2019-02-03T07:42:41.066Z,16.75
2019-02-03T07:43:21.711Z,16.82
2019-02-03T07:44:02.326Z,16.75
2019-02-03T07:44:42.940Z,16.86
2019-02-03T07:45:23.533Z,16.83
2019-02-03T07:46:04.175Z,16.88
2019-02-03T07:46:44.808Z,16.78
2019-02-03T07:47:25.436Z,16.85
2019-02-03T07:48:06.056Z,16.89
2019-02-03T07:48:46.767Z,16.89
2019-02-03T07:49:27.278Z,16.93
2019-02-03T07:50:07.875Z,16.89
2019-02-03T07:52:23.236Z,16.88
2019-02-03T07:53:03.835Z,16.86
2019-02-03T07:53:44.440Z,16.88
2019-02-03T07:54:25.062Z,16.91
2019-02-03T07:55:05.676Z,16.91
2019-02-03T07:55:46.273Z,16.82
2019-02-03T07:56:26.904Z,16.89
2019-02-03T07:57:07.516Z,16.83
2019-02-03T07:57:48.124Z,16.88
2019-02-03T07:58:28.729Z,16.89
2019-02-03T07:59:09.328Z,16.85
2019-02-03T07:59:49.931Z,16.88
2019-02-03T08:00:30.548Z,16.89
2019-02-03T08:01:11.170Z,16.96
2019-02-03T08:01:51.754Z,16.89
2019-02-03T08:02:32.348Z,16.88
2019-02-03T08:03:12.946Z,16.89
2019-02-03T08:03:53.570Z,16.89
2019-02-03T08:04:34.254Z,16.86
2019-02-03T08:05:14.874Z,16.88
2019-02-03T08:05:55.465Z,16.93
2019-02-03T08:06:36.058Z,16.93
2019-02-03T08:07:16.676Z,16.83
2019-02-03T08:07:57.274Z,16.89
2019-02-03T08:08:37.914Z,16.94
2019-02-03T08:09:18.522Z,16.89
2019-02-03T08:09:59.130Z,16.83
2019-02-03T08:10:39.742Z,16.91
2019-02-03T08:11:20.354Z,16.88
2019-02-03T08:12:00.977Z,16.88
2019-02-03T08:12:41.586Z,16.86
2019-02-03T08:13:22.183Z,16.97
2019-02-03T08:14:02.784Z,16.85
2019-02-03T08:14:43.400Z,16.81
2019-02-03T08:15:23.996Z,16.89
2019-02-03T08:16:04.614Z,16.85
2019-02-03T08:16:45.206Z,16.85
2019-02-03T08:17:25.819Z,16.86
2019-02-03T08:18:06.426Z,16.88
2019-02-03T08:18:47.038Z,16.88
2019-02-03T08:19:27.644Z,16.86
2019-02-03T08:20:08.269Z,16.85
2019-02-03T08:20:48.874Z,16.88
2019-02-03T08:21:29.484Z,16.86
2019-02-03T08:22:10.097Z,16.89
2019-02-03T08:22:50.700Z,16.86
2019-02-03T08:23:31.310Z,16.91
2019-02-03T08:24:11.923Z,16.89
2019-02-03T08:24:52.528Z,16.85
2019-02-03T08:25:33.162Z,16.89
2019-02-03T08:26:13.796Z,16.91
2019-02-03T08:26:54.406Z,16.86
2019-02-03T08:27:35.000Z,16.91
2019-02-03T08:28:15.603Z,16.88
2019-02-03T08:28:56.216Z,16.89
2019-02-03T08:29:36.816Z,16.88
2019-02-03T08:30:17.404Z,16.85
2019-02-03T08:30:58.054Z,16.93
2019-02-03T08:31:38.718Z,16.89
2019-02-03T08:32:19.320Z,16.86
2019-02-03T08:32:59.983Z,16.86
2019-02-03T08:33:40.586Z,16.89
2019-02-03T08:34:21.196Z,16.83
2019-02-03T08:35:01.829Z,16.89
2019-02-03T08:35:42.443Z,16.89
2019-02-03T08:36:23.069Z,16.83
2019-02-03T08:37:03.686Z,16.88
2019-02-03T08:37:44.288Z,16.85
2019-02-03T08:38:24.910Z,16.91
2019-02-03T08:39:05.560Z,16.88
2019-02-03T08:39:46.175Z,16.89
2019-02-03T08:40:36.331Z,16.88
2019-02-03T08:41:07.386Z,16.86
2019-02-03T08:41:47.980Z,16.86
2019-02-03T08:42:28.604Z,16.97
2019-02-03T08:43:09.255Z,16.91
2019-02-03T08:43:49.820Z,16.86
2019-02-03T08:44:30.419Z,16.86
2019-02-03T08:45:11.032Z,16.91